Triana, Alabama
Current Conditions -  °F | °C
As of 6:53 PM on Sunday 23 Nov 2014 (Local Time) from KHSV Reporting Station
Overcast Overcast  
Wind Chill: 18°   Ceiling: 3300
Heat Index: 18°   Visibility: 10mi
Dew Point: 14°   Wind: 21mph
Humidity: 75%   Direction: 200°SSW
Pressure: 29.53"   Gusts: 29mph
Location:  34.6731°N, 86.8135°W
Report Text: KHSV 240053Z 20018G25KT 10SM SCT024 BKN033 OVC055 18/14 A2953 RMK AO2 PK WND 20027/0017 SLP996 T01830139
Loading
Personal Weather Stations






























Interactive Weather Map New forecast layout! Learn more

10-Day Weather Forecast

Advertisements
Track Severe Weather on mobile